sensor_id;sensor_type;location;lat;lon;timestamp;pressure;altitude;pressure_sealevel;temperature;humidity
11710;BME280;5911;51.036;6.972;2023-07-13T00:00:31;100699.88;;;22.00;50.55
11710;BME280;5911;51.036;6.972;2023-07-13T00:02:59;100705.06;;;22.01;51.10
11710;BME280;5911;51.036;6.972;2023-07-13T00:05:27;100698.22;;;21.99;51.25
11710;BME280;5911;51.036;6.972;2023-07-13T00:07:55;100698.66;;;22.02;50.76
11710;BME280;5911;51.036;6.972;2023-07-13T00:10:24;100704.59;;;21.98;51.34
11710;BME280;5911;51.036;6.972;2023-07-13T00:12:52;100680.28;;;21.78;51.86
11710;BME280;5911;51.036;6.972;2023-07-13T00:15:24;100706.03;;;21.94;51.59
11710;BME280;5911;51.036;6.972;2023-07-13T00:17:54;100709.94;;;21.91;51.86
11710;BME280;5911;51.036;6.972;2023-07-13T00:20:24;100699.75;;;21.87;51.83
11710;BME280;5911;51.036;6.972;2023-07-13T00:22:52;100705.56;;;21.84;51.83
11710;BME280;5911;51.036;6.972;2023-07-13T00:25:21;100709.88;;;21.85;51.28
11710;BME280;5911;51.036;6.972;2023-07-13T00:27:52;100707.44;;;21.90;51.56
11710;BME280;5911;51.036;6.972;2023-07-13T00:30:21;100689.19;;;21.79;51.27
11710;BME280;5911;51.036;6.972;2023-07-13T00:32:49;100689.81;;;21.81;51.34
11710;BME280;5911;51.036;6.972;2023-07-13T00:35:35;100697.50;;;21.84;51.73
11710;BME280;5911;51.036;6.972;2023-07-13T00:38:02;100703.09;;;21.89;51.96
11710;BME280;5911;51.036;6.972;2023-07-13T00:40:31;100703.88;;;21.83;51.26
11710;BME280;5911;51.036;6.972;2023-07-13T00:43:00;100702.22;;;21.82;51.84
11710;BME280;5911;51.036;6.972;2023-07-13T00:48:36;100708.56;;;21.74;52.18
11710;BME280;5911;51.036;6.972;2023-07-13T00:51:05;100702.34;;;21.67;52.55
11710;BME280;5911;51.036;6.972;2023-07-13T00:53:34;100698.81;;;21.66;52.36
11710;BME280;5911;51.036;6.972;2023-07-13T00:56:02;100697.38;;;21.70;52.16
11710;BME280;5911;51.036;6.972;2023-07-13T00:58:33;100698.81;;;21.66;52.53
11710;BME280;5911;51.036;6.972;2023-07-13T01:01:02;100695.09;;;21.67;52.63
11710;BME280;5911;51.036;6.972;2023-07-13T01:03:30;100693.81;;;21.63;52.96
11710;BME280;5911;51.036;6.972;2023-07-13T01:05:59;100684.13;;;21.62;52.61
11710;BME280;5911;51.036;6.972;2023-07-13T01:08:27;100690.66;;;21.53;53.15
11710;BME280;5911;51.036;6.972;2023-07-13T01:10:56;100694.38;;;21.52;52.96
11710;BME280;5911;51.036;6.972;2023-07-13T01:13:25;100689.50;;;21.41;52.98
11710;BME280;5911;51.036;6.972;2023-07-13T01:15:57;100696.53;;;21.42;53.15
11710;BME280;5911;51.036;6.972;2023-07-13T01:18:27;100690.78;;;21.45;53.04
11710;BME280;5911;51.036;6.972;2023-07-13T01:20:58;100697.19;;;21.44;53.20
11710;BME280;5911;51.036;6.972;2023-07-13T01:23:27;100674.97;;;21.29;53.10
11710;BME280;5911;51.036;6.972;2023-07-13T01:25:56;100698.81;;;21.38;53.62
11710;BME280;5911;51.036;6.972;2023-07-13T01:28:26;100695.28;;;21.38;53.91
11710;BME280;5911;51.036;6.972;2023-07-13T01:30:56;100695.78;;;21.27;54.02
11710;BME280;5911;51.036;6.972;2023-07-13T01:33:25;100691.03;;;21.22;54.61
11710;BME280;5911;51.036;6.972;2023-07-13T01:35:53;100695.16;;;21.25;54.35
11710;BME280;5911;51.036;6.972;2023-07-13T01:38:23;100684.81;;;21.22;54.34
11710;BME280;5911;51.036;6.972;2023-07-13T01:40:53;100693.47;;;21.24;54.88
11710;BME280;5911;51.036;6.972;2023-07-13T01:43:23;100695.78;;;21.27;54.87
11710;BME280;5911;51.036;6.972;2023-07-13T01:45:51;100680.09;;;21.09;55.09
11710;BME280;5911;51.036;6.972;2023-07-13T01:48:26;100694.09;;;21.19;55.74
11710;BME280;5911;51.036;6.972;2023-07-13T01:50:54;100681.84;;;21.17;55.02
11710;BME280;5911;51.036;6.972;2023-07-13T01:53:23;100698.78;;;21.17;56.04
11710;BME280;5911;51.036;6.972;2023-07-13T01:55:51;100703.31;;;21.17;55.77
11710;BME280;5911;51.036;6.972;2023-07-13T01:58:19;100697.94;;;21.17;55.98
11710;BME280;5911;51.036;6.972;2023-07-13T02:00:48;100691.75;;;21.16;56.13
11710;BME280;5911;51.036;6.972;2023-07-13T02:03:16;100699.59;;;21.18;56.44
11710;BME280;5911;51.036;6.972;2023-07-13T02:05:44;100686.13;;;21.11;55.99
11710;BME280;5911;51.036;6.972;2023-07-13T02:08:12;100702.84;;;21.13;57.02
11710;BME280;5911;51.036;6.972;2023-07-13T02:10:42;100703.69;;;21.14;57.00
11710;BME280;5911;51.036;6.972;2023-07-13T02:13:09;100702.66;;;21.15;56.95
11710;BME280;5911;51.036;6.972;2023-07-13T02:15:38;100707.75;;;21.10;56.84
11710;BME280;5911;51.036;6.972;2023-07-13T02:18:07;100709.84;;;21.08;57.69
11710;BME280;5911;51.036;6.972;2023-07-13T02:20:35;100675.31;;;20.83;56.94
11710;BME280;5911;51.036;6.972;2023-07-13T02:23:03;100690.28;;;20.92;57.34
11710;BME280;5911;51.036;6.972;2023-07-13T02:25:35;100699.78;;;20.95;58.13
11710;BME280;5911;51.036;6.972;2023-07-13T02:28:04;100705.31;;;20.93;57.62
11710;BME280;5911;51.036;6.972;2023-07-13T02:30:33;100706.75;;;20.89;58.33
11710;BME280;5911;51.036;6.972;2023-07-13T02:33:02;100700.59;;;20.95;58.31
11710;BME280;5911;51.036;6.972;2023-07-13T02:35:31;100698.53;;;20.91;58.72
11710;BME280;5911;51.036;6.972;2023-07-13T02:37:59;100704.91;;;20.90;58.98
11710;BME280;5911;51.036;6.972;2023-07-13T02:40:26;100699.72;;;20.88;59.21
11710;BME280;5911;51.036;6.972;2023-07-13T02:42:54;100712.94;;;20.90;59.23
11710;BME280;5911;51.036;6.972;2023-07-13T02:45:23;100711.47;;;20.87;59.19
11710;BME280;5911;51.036;6.972;2023-07-13T02:47:51;100712.50;;;20.86;59.26
11710;BME280;5911;51.036;6.972;2023-07-13T02:50:20;100702.13;;;20.83;59.42
11710;BME280;5911;51.036;6.972;2023-07-13T02:52:48;100709.53;;;20.81;59.92
11710;BME280;5911;51.036;6.972;2023-07-13T02:55:16;100716.19;;;20.85;59.65
11710;BME280;5911;51.036;6.972;2023-07-13T02:57:44;100705.84;;;20.82;59.30
11710;BME280;5911;51.036;6.972;2023-07-13T03:00:12;100716.31;;;20.77;59.00
11710;BME280;5911;51.036;6.972;2023-07-13T03:02:44;100708.56;;;20.67;59.37
11710;BME280;5911;51.036;6.972;2023-07-13T03:05:12;100717.34;;;20.76;59.02
11710;BME280;5911;51.036;6.972;2023-07-13T03:07:42;100718.91;;;20.70;58.45
11710;BME280;5911;51.036;6.972;2023-07-13T03:10:12;100721.03;;;20.75;58.93
11710;BME280;5911;51.036;6.972;2023-07-13T03:12:45;100707.72;;;20.67;58.95
11710;BME280;5911;51.036;6.972;2023-07-13T03:15:25;100727.78;;;20.71;60.05
11710;BME280;5911;51.036;6.972;2023-07-13T03:17:56;100722.78;;;20.68;60.43
11710;BME280;5911;51.036;6.972;2023-07-13T03:20:24;100716.03;;;20.72;59.87
11710;BME280;5911;51.036;6.972;2023-07-13T03:22:53;100716.50;;;20.76;59.33
11710;BME280;5911;51.036;6.972;2023-07-13T03:25:21;100706.44;;;20.63;59.16
11710;BME280;5911;51.036;6.972;2023-07-13T03:27:49;100725.66;;;20.66;59.85
11710;BME280;5911;51.036;6.972;2023-07-13T03:30:17;100725.84;;;20.65;60.00
11710;BME280;5911;51.036;6.972;2023-07-13T03:32:45;100729.94;;;20.61;59.66
11710;BME280;5911;51.036;6.972;2023-07-13T03:35:14;100732.22;;;20.64;59.44
11710;BME280;5911;51.036;6.972;2023-07-13T03:37:42;100737.72;;;20.56;59.11
11710;BME280;5911;51.036;6.972;2023-07-13T03:40:15;100734.75;;;20.51;58.96
11710;BME280;5911;51.036;6.972;2023-07-13T03:42:45;100732.72;;;20.53;59.33
11710;BME280;5911;51.036;6.972;2023-07-13T03:45:16;100741.41;;;20.55;58.94
11710;BME280;5911;51.036;6.972;2023-07-13T03:47:44;100745.94;;;20.54;59.37
11710;BME280;5911;51.036;6.972;2023-07-13T03:50:13;100743.06;;;20.56;58.88
11710;BME280;5911;51.036;6.972;2023-07-13T03:52:41;100749.16;;;20.50;58.50
11710;BME280;5911;51.036;6.972;2023-07-13T03:55:09;100750.81;;;20.51;58.63
11710;BME280;5911;51.036;6.972;2023-07-13T03:57:38;100750.00;;;20.50;59.51
11710;BME280;5911;51.036;6.972;2023-07-13T04:00:09;100748.25;;;20.57;59.26
11710;BME280;5911;51.036;6.972;2023-07-13T04:02:41;100760.28;;;20.47;59.87
11710;BME280;5911;51.036;6.972;2023-07-13T04:05:09;100754.63;;;20.56;59.48
11710;BME280;5911;51.036;6.972;2023-07-13T04:07:38;100759.88;;;20.50;59.48
11710;BME280;5911;51.036;6.972;2023-07-13T04:10:07;100757.47;;;20.55;59.92
11710;BME280;5911;51.036;6.972;2023-07-13T04:12:35;100762.28;;;20.59;60.11
11710;BME280;5911;51.036;6.972;2023-07-13T04:15:04;100762.38;;;20.51;59.88
11710;BME280;5911;51.036;6.972;2023-07-13T04:17:32;100765.81;;;20.60;60.11
11710;BME280;5911;51.036;6.972;2023-07-13T04:20:00;100778.56;;;20.58;59.90
11710;BME280;5911;51.036;6.972;2023-07-13T04:22:28;100773.19;;;20.58;60.09
11710;BME280;5911;51.036;6.972;2023-07-13T04:24:57;100768.22;;;20.55;60.91
11710;BME280;5911;51.036;6.972;2023-07-13T04:27:25;100772.38;;;20.57;60.56
11710;BME280;5911;51.036;6.972;2023-07-13T04:29:53;100776.91;;;20.57;61.28
11710;BME280;5911;51.036;6.972;2023-07-13T04:32:21;100769.97;;;20.48;60.91
11710;BME280;5911;51.036;6.972;2023-07-13T04:34:49;100777.63;;;20.51;61.04
11710;BME280;5911;51.036;6.972;2023-07-13T04:37:20;100768.22;;;20.55;61.20
11710;BME280;5911;51.036;6.972;2023-07-13T04:39:48;100772.75;;;20.54;60.87
11710;BME280;5911;51.036;6.972;2023-07-13T04:42:17;100764.31;;;20.57;61.45
11710;BME280;5911;51.036;6.972;2023-07-13T04:44:47;100776.72;;;20.44;61.69
11710;BME280;5911;51.036;6.972;2023-07-13T04:47:16;100779.66;;;20.49;62.18
11710;BME280;5911;51.036;6.972;2023-07-13T04:49:44;100773.88;;;20.45;61.80
11710;BME280;5911;51.036;6.972;2023-07-13T04:52:12;100776.63;;;20.52;62.07
11710;BME280;5911;51.036;6.972;2023-07-13T04:54:40;100772.44;;;20.49;62.11
11710;BME280;5911;51.036;6.972;2023-07-13T04:57:08;100777.09;;;20.41;63.06
11710;BME280;5911;51.036;6.972;2023-07-13T04:59:37;100779.94;;;20.39;63.17
11710;BME280;5911;51.036;6.972;2023-07-13T05:02:05;100774.69;;;20.46;63.00
11710;BME280;5911;51.036;6.972;2023-07-13T05:04:33;100757.75;;;20.30;63.30
11710;BME280;5911;51.036;6.972;2023-07-13T05:07:05;100787.97;;;20.54;63.46
11710;BME280;5911;51.036;6.972;2023-07-13T05:09:33;100787.09;;;20.47;63.12
11710;BME280;5911;51.036;6.972;2023-07-13T05:12:01;100794.47;;;20.45;64.11
11710;BME280;5911;51.036;6.972;2023-07-13T05:14:29;100774.22;;;20.42;63.92
11710;BME280;5911;51.036;6.972;2023-07-13T05:16:58;100794.91;;;20.48;64.24
11710;BME280;5911;51.036;6.972;2023-07-13T05:19:26;100797.69;;;20.55;64.22
11710;BME280;5911;51.036;6.972;2023-07-13T05:21:54;100791.22;;;20.49;64.60
11710;BME280;5911;51.036;6.972;2023-07-13T05:24:22;100797.81;;;20.47;64.00
11710;BME280;5911;51.036;6.972;2023-07-13T05:26:51;100787.09;;;20.47;64.56
11710;BME280;5911;51.036;6.972;2023-07-13T05:29:20;100798.81;;;20.46;65.53
11710;BME280;5911;51.036;6.972;2023-07-13T05:31:48;100808.53;;;20.47;64.63
11710;BME280;5911;51.036;6.972;2023-07-13T05:34:18;100811.00;;;20.48;65.58
11710;BME280;5911;51.036;6.972;2023-07-13T05:36:46;100785.69;;;20.36;65.83
11710;BME280;5911;51.036;6.972;2023-07-13T05:39:14;100813.78;;;20.55;66.12
11710;BME280;5911;51.036;6.972;2023-07-13T05:41:42;100821.28;;;20.45;66.11
11710;BME280;5911;51.036;6.972;2023-07-13T05:44:10;100814.97;;;20.38;67.23
11710;BME280;5911;51.036;6.972;2023-07-13T05:46:38;100814.91;;;20.46;67.58
11710;BME280;5911;51.036;6.972;2023-07-13T05:49:06;100814.50;;;20.49;67.31
11710;BME280;5911;51.036;6.972;2023-07-13T05:51:35;100822.19;;;20.52;67.77
11710;BME280;5911;51.036;6.972;2023-07-13T05:54:03;100823.56;;;20.62;67.36
11710;BME280;5911;51.036;6.972;2023-07-13T05:56:31;100826.44;;;20.61;67.66
11710;BME280;5911;51.036;6.972;2023-07-13T05:58:59;100825.03;;;20.65;68.02
11710;BME280;5911;51.036;6.972;2023-07-13T06:01:27;100822.75;;;20.62;68.36
11710;BME280;5911;51.036;6.972;2023-07-13T06:03:54;100829.56;;;20.64;68.62
11710;BME280;5911;51.036;6.972;2023-07-13T06:06:22;100828.00;;;20.70;69.18
11710;BME280;5911;51.036;6.972;2023-07-13T06:08:51;100832.63;;;20.76;70.36
11710;BME280;5911;51.036;6.972;2023-07-13T06:11:21;100834.91;;;20.79;69.85
11710;BME280;5911;51.036;6.972;2023-07-13T06:13:50;100833.00;;;20.73;69.98
11710;BME280;5911;51.036;6.972;2023-07-13T06:16:18;100839.63;;;20.62;69.58
11710;BME280;5911;51.036;6.972;2023-07-13T06:18:46;100843.81;;;20.50;70.53
11710;BME280;5911;51.036;6.972;2023-07-13T06:21:16;100826.03;;;20.34;71.30
11710;BME280;5911;51.036;6.972;2023-07-13T06:23:45;100838.75;;;20.32;71.78
11710;BME280;5911;51.036;6.972;2023-07-13T06:26:16;100853.44;;;20.45;72.01
11710;BME280;5911;51.036;6.972;2023-07-13T06:28:44;100830.09;;;20.30;72.35
11710;BME280;5911;51.036;6.972;2023-07-13T06:31:13;100843.09;;;20.33;72.73
11710;BME280;5911;51.036;6.972;2023-07-13T06:33:42;100821.50;;;20.35;73.80
11710;BME280;5911;51.036;6.972;2023-07-13T06:36:11;100856.13;;;20.59;73.25
11710;BME280;5911;51.036;6.972;2023-07-13T06:38:39;100850.28;;;20.56;73.66
11710;BME280;5911;51.036;6.972;2023-07-13T06:41:07;100858.16;;;20.57;73.17
11710;BME280;5911;51.036;6.972;2023-07-13T06:43:37;100856.94;;;20.60;73.41
11710;BME280;5911;51.036;6.972;2023-07-13T06:46:06;100860.28;;;20.62;73.33
11710;BME280;5911;51.036;6.972;2023-07-13T06:48:34;100846.59;;;20.57;73.72
11710;BME280;5911;51.036;6.972;2023-07-13T06:51:02;100856.19;;;20.66;72.80
11710;BME280;5911;51.036;6.972;2023-07-13T06:53:30;100862.03;;;20.69;73.83
11710;BME280;5911;51.036;6.972;2023-07-13T06:56:00;100862.03;;;20.55;73.17
11710;BME280;5911;51.036;6.972;2023-07-13T06:58:28;100861.00;;;20.56;73.62
11710;BME280;5911;51.036;6.972;2023-07-13T07:00:57;100844.25;;;20.39;74.02
11710;BME280;5911;51.036;6.972;2023-07-13T07:03:25;100855.66;;;20.56;74.88
11710;BME280;5911;51.036;6.972;2023-07-13T07:05:53;100863.69;;;20.56;73.98
11710;BME280;5911;51.036;6.972;2023-07-13T07:08:21;100867.56;;;20.68;74.99
11710;BME280;5911;51.036;6.972;2023-07-13T07:10:52;100866.66;;;20.76;74.22
11710;BME280;5911;51.036;6.972;2023-07-13T07:13:22;100871.38;;;20.88;74.29
11710;BME280;5911;51.036;6.972;2023-07-13T07:15:50;100873.94;;;20.96;73.51
11710;BME280;5911;51.036;6.972;2023-07-13T07:18:20;100876.91;;;21.01;73.75
11710;BME280;5911;51.036;6.972;2023-07-13T07:20:49;100880.13;;;20.97;73.34
11710;BME280;5911;51.036;6.972;2023-07-13T07:23:17;100882.44;;;21.15;72.82
11710;BME280;5911;51.036;6.972;2023-07-13T07:25:45;100882.91;;;21.18;72.42
11710;BME280;5911;51.036;6.972;2023-07-13T07:28:15;100891.13;;;21.17;72.81
11710;BME280;5911;51.036;6.972;2023-07-13T07:30:48;100885.25;;;21.21;73.06
11710;BME280;5911;51.036;6.972;2023-07-13T07:33:20;100883.72;;;21.19;72.76
11710;BME280;5911;51.036;6.972;2023-07-13T07:35:48;100889.47;;;21.16;72.85
11710;BME280;5911;51.036;6.972;2023-07-13T07:38:19;100887.09;;;21.21;73.42
11710;BME280;5911;51.036;6.972;2023-07-13T07:40:52;100894.56;;;21.25;72.66
11710;BME280;5911;51.036;6.972;2023-07-13T07:43:22;100875.34;;;21.07;72.24
11710;BME280;5911;51.036;6.972;2023-07-13T07:45:49;100890.78;;;21.20;71.96
11710;BME280;5911;51.036;6.972;2023-07-13T07:48:17;100890.09;;;21.18;72.30
11710;BME280;5911;51.036;6.972;2023-07-13T07:50:46;100890.78;;;21.20;72.06
11710;BME280;5911;51.036;6.972;2023-07-13T07:53:14;100882.56;;;21.21;72.21
11710;BME280;5911;51.036;6.972;2023-07-13T07:55:42;100896.41;;;21.25;72.24
11710;BME280;5911;51.036;6.972;2023-07-13T07:58:13;100890.03;;;21.26;72.09
11710;BME280;5911;51.036;6.972;2023-07-13T08:01:04;100888.56;;;21.23;72.73
11710;BME280;5911;51.036;6.972;2023-07-13T08:03:36;100874.94;;;21.10;72.35
11710;BME280;5911;51.036;6.972;2023-07-13T08:06:09;100895.78;;;21.23;71.96
11710;BME280;5911;51.036;6.972;2023-07-13T08:08:40;100871.31;;;21.18;72.70
11710;BME280;5911;51.036;6.972;2023-07-13T08:11:08;100891.41;;;21.36;73.00
11710;BME280;5911;51.036;6.972;2023-07-13T08:13:40;100888.53;;;21.38;72.59
11710;BME280;5911;51.036;6.972;2023-07-13T08:16:08;100888.13;;;21.41;72.57
11710;BME280;5911;51.036;6.972;2023-07-13T08:18:37;100879.44;;;21.39;72.89
11710;BME280;5911;51.036;6.972;2023-07-13T08:21:09;100885.59;;;21.54;74.15
11710;BME280;5911;51.036;6.972;2023-07-13T08:23:37;100881.06;;;21.55;73.00
11710;BME280;5911;51.036;6.972;2023-07-13T08:26:05;100876.88;;;21.67;73.65
11710;BME280;5911;51.036;6.972;2023-07-13T08:28:33;100876.16;;;21.80;73.69
11710;BME280;5911;51.036;6.972;2023-07-13T08:31:02;100883.41;;;21.79;72.51
11710;BME280;5911;51.036;6.972;2023-07-13T08:33:31;100888.19;;;21.84;72.91
11710;BME280;5911;51.036;6.972;2023-07-13T08:35:59;100880.34;;;21.82;71.30
11710;BME280;5911;51.036;6.972;2023-07-13T08:38:28;100876.34;;;21.78;71.54
11710;BME280;5911;51.036;6.972;2023-07-13T08:40:57;100890.63;;;21.79;71.23
11710;BME280;5911;51.036;6.972;2023-07-13T08:43:27;100885.63;;;21.75;71.67
11710;BME280;5911;51.036;6.972;2023-07-13T08:46:03;100876.81;;;21.82;71.19
11710;BME280;5911;51.036;6.972;2023-07-13T08:48:36;100876.81;;;21.82;71.66
11710;BME280;5911;51.036;6.972;2023-07-13T08:51:14;100858.88;;;21.89;71.89
11710;BME280;5911;51.036;6.972;2023-07-13T08:53:49;100868.34;;;21.99;71.13
11710;BME280;5911;51.036;6.972;2023-07-13T08:56:23;100858.25;;;22.08;72.13
11710;BME280;5911;51.036;6.972;2023-07-13T08:58:57;100857.38;;;22.01;70.60
11710;BME280;5911;51.036;6.972;2023-07-13T09:01:31;100872.19;;;21.97;69.95
11710;BME280;5911;51.036;6.972;2023-07-13T09:04:05;100875.78;;;22.04;70.09
11710;BME280;5911;51.036;6.972;2023-07-13T09:06:46;100863.56;;;22.01;68.91
11710;BME280;5911;51.036;6.972;2023-07-13T09:09:24;100874.47;;;22.15;69.39
11710;BME280;5911;51.036;6.972;2023-07-13T09:12:02;100885.41;;;22.13;69.04
11710;BME280;5911;51.036;6.972;2023-07-13T09:14:42;100873.09;;;22.04;68.45
11710;BME280;5911;51.036;6.972;2023-07-13T09:17:16;100839.91;;;21.90;68.07
11710;BME280;5911;51.036;6.972;2023-07-13T09:19:48;100872.47;;;22.02;67.90
11710;BME280;5911;51.036;6.972;2023-07-13T09:22:22;100873.03;;;21.97;68.45
11710;BME280;5911;51.036;6.972;2023-07-13T09:24:57;100869.78;;;22.02;69.47
11710;BME280;5911;51.036;6.972;2023-07-13T09:27:31;100874.50;;;22.00;68.32
11710;BME280;5911;51.036;6.972;2023-07-13T09:30:11;100869.78;;;22.02;68.27
11710;BME280;5911;51.036;6.972;2023-07-13T09:32:49;100865.03;;;22.04;68.31
11710;BME280;5911;51.036;6.972;2023-07-13T09:35:21;100876.75;;;21.96;67.35
11710;BME280;5911;51.036;6.972;2023-07-13T09:37:50;100866.44;;;22.00;67.41
11710;BME280;5911;51.036;6.972;2023-07-13T09:40:24;100864.03;;;22.05;68.83
11710;BME280;5911;51.036;6.972;2023-07-13T09:42:54;100877.97;;;22.15;68.32
11710;BME280;5911;51.036;6.972;2023-07-13T09:45:27;100872.44;;;22.23;68.79
11710;BME280;5911;51.036;6.972;2023-07-13T09:48:00;100876.63;;;22.32;69.04
11710;BME280;5911;51.036;6.972;2023-07-13T09:50:31;100866.31;;;22.29;67.88
11710;BME280;5911;51.036;6.972;2023-07-13T09:53:00;100847.22;;;22.24;68.36
11710;BME280;5911;51.036;6.972;2023-07-13T09:55:32;100877.88;;;22.58;68.15
11710;BME280;5911;51.036;6.972;2023-07-13T09:58:04;100888.25;;;22.61;67.34
11710;BME280;5911;51.036;6.972;2023-07-13T10:00:33;100889.28;;;22.60;66.54
11710;BME280;5911;51.036;6.972;2023-07-13T10:03:03;100889.41;;;22.52;65.14
11710;BME280;5911;51.036;6.972;2023-07-13T10:05:38;100873.00;;;22.46;65.39
11710;BME280;5911;51.036;6.972;2023-07-13T10:08:18;100890.81;;;22.48;63.39
11710;BME280;5911;51.036;6.972;2023-07-13T10:10:52;100884.19;;;22.43;64.37
11710;BME280;5911;51.036;6.972;2023-07-13T10:13:25;100885.50;;;22.54;64.96
11710;BME280;5911;51.036;6.972;2023-07-13T10:15:55;100889.69;;;22.63;64.52
11710;BME280;5911;51.036;6.972;2023-07-13T10:18:25;100896.78;;;22.71;65.04
11710;BME280;5911;51.036;6.972;2023-07-13T10:21:00;100893.94;;;22.79;64.78
11710;BME280;5911;51.036;6.972;2023-07-13T10:23:59;100896.19;;;22.75;63.28
11710;BME280;5911;51.036;6.972;2023-07-13T10:26:34;100907.91;;;22.89;62.29
11710;BME280;5911;51.036;6.972;2023-07-13T10:29:06;100898.22;;;23.01;61.96
11710;BME280;5911;51.036;6.972;2023-07-13T10:31:39;100899.25;;;23.07;62.11
11710;BME280;5911;51.036;6.972;2023-07-13T10:34:09;100883.47;;;22.91;61.79
11710;BME280;5911;51.036;6.972;2023-07-13T10:36:40;100906.53;;;23.06;60.96
11710;BME280;5911;51.036;6.972;2023-07-13T10:39:15;100911.50;;;23.09;59.88
11710;BME280;5911;51.036;6.972;2023-07-13T10:41:48;100919.41;;;23.18;58.86
11710;BME280;5911;51.036;6.972;2023-07-13T10:44:21;100897.53;;;23.34;59.49
11710;BME280;5911;51.036;6.972;2023-07-13T10:46:55;100912.34;;;23.51;57.75
11710;BME280;5911;51.036;6.972;2023-07-13T10:49:26;100915.44;;;23.55;56.87
11710;BME280;5911;51.036;6.972;2023-07-13T10:51:56;100912.16;;;23.53;57.64
11710;BME280;5911;51.036;6.972;2023-07-13T10:54:27;100909.56;;;23.44;57.75
11710;BME280;5911;51.036;6.972;2023-07-13T10:57:15;100914.94;;;23.38;57.34
11710;BME280;5911;51.036;6.972;2023-07-13T10:59:47;100919.47;;;23.31;57.74
11710;BME280;5911;51.036;6.972;2023-07-13T11:02:24;100916.19;;;23.35;57.79
11710;BME280;5911;51.036;6.972;2023-07-13T11:04:55;100916.00;;;23.37;57.53
11710;BME280;5911;51.036;6.972;2023-07-13T11:07:25;100903.72;;;23.28;56.34
11710;BME280;5911;51.036;6.972;2023-07-13T11:09:55;100917.84;;;23.36;56.44
11710;BME280;5911;51.036;6.972;2023-07-13T11:12:49;100913.28;;;23.37;56.18
11710;BME280;5911;51.036;6.972;2023-07-13T11:15:31;100909.13;;;23.34;56.19
11710;BME280;5911;51.036;6.972;2023-07-13T11:18:03;100918.69;;;23.43;56.30
11710;BME280;5911;51.036;6.972;2023-07-13T11:20:35;100912.78;;;23.61;56.43
11710;BME280;5911;51.036;6.972;2023-07-13T11:23:27;100919.44;;;23.78;56.40
11710;BME280;5911;51.036;6.972;2023-07-13T11:25:56;100907.63;;;23.73;54.98
11710;BME280;5911;51.036;6.972;2023-07-13T11:28:30;100913.44;;;23.76;54.98
11710;BME280;5911;51.036;6.972;2023-07-13T11:31:02;100921.75;;;23.95;54.17
11710;BME280;5911;51.036;6.972;2023-07-13T11:33:51;100903.16;;;24.26;53.82
11710;BME280;5911;51.036;6.972;2023-07-13T11:36:21;100920.94;;;24.86;52.45
11710;BME280;5911;51.036;6.972;2023-07-13T11:38:58;100921.59;;;25.40;50.18
11710;BME280;5911;51.036;6.972;2023-07-13T11:41:29;100927.09;;;25.13;49.17
11710;BME280;5911;51.036;6.972;2023-07-13T11:44:10;100928.84;;;24.68;49.91
11710;BME280;5911;51.036;6.972;2023-07-13T11:46:39;100915.16;;;24.30;50.77
11710;BME280;5911;51.036;6.972;2023-07-13T11:49:15;100916.59;;;24.13;51.52
11710;BME280;5911;51.036;6.972;2023-07-13T11:51:43;100901.00;;;23.89;52.29
11710;BME280;5911;51.036;6.972;2023-07-13T11:54:23;100915.97;;;23.98;52.33
11710;BME280;5911;51.036;6.972;2023-07-13T11:56:53;100920.13;;;24.07;53.23
11710;BME280;5911;51.036;6.972;2023-07-13T11:59:23;100906.03;;;24.11;52.78
11710;BME280;5911;51.036;6.972;2023-07-13T12:01:53;100906.00;;;24.18;52.63
11710;BME280;5911;51.036;6.972;2023-07-13T12:04:23;100908.91;;;24.69;51.32
11710;BME280;5911;51.036;6.972;2023-07-13T12:06:56;100886.31;;;24.57;50.57
11710;BME280;5911;51.036;6.972;2023-07-13T12:09:27;100907.69;;;24.52;51.23
11710;BME280;5911;51.036;6.972;2023-07-13T12:11:57;100905.63;;;24.41;51.78
11710;BME280;5911;51.036;6.972;2023-07-13T12:14:28;100907.72;;;24.39;50.27
11710;BME280;5911;51.036;6.972;2023-07-13T12:16:56;100895.44;;;24.56;49.36
11710;BME280;5911;51.036;6.972;2023-07-13T12:19:26;100910.53;;;25.03;48.22
11710;BME280;5911;51.036;6.972;2023-07-13T12:21:56;100915.34;;;25.46;47.25
11710;BME280;5911;51.036;6.972;2023-07-13T12:24:26;100902.44;;;25.48;46.65
11710;BME280;5911;51.036;6.972;2023-07-13T12:26:59;100907.41;;;25.89;45.95
11710;BME280;5911;51.036;6.972;2023-07-13T12:29:31;100900.28;;;26.26;45.46
11710;BME280;5911;51.036;6.972;2023-07-13T12:31:59;100894.81;;;26.08;45.77
11710;BME280;5911;51.036;6.972;2023-07-13T12:34:27;100911.13;;;25.56;46.17
11710;BME280;5911;51.036;6.972;2023-07-13T12:36:56;100898.00;;;25.60;46.24
11710;BME280;5911;51.036;6.972;2023-07-13T12:39:32;100911.69;;;26.28;44.87
11710;BME280;5911;51.036;6.972;2023-07-13T12:42:17;100897.97;;;26.54;43.83
11710;BME280;5911;51.036;6.972;2023-07-13T12:44:48;100897.63;;;25.95;44.27
11710;BME280;5911;51.036;6.972;2023-07-13T12:47:16;100909.81;;;25.72;44.76
11710;BME280;5911;51.036;6.972;2023-07-13T12:49:48;100898.66;;;25.62;45.01
11710;BME280;5911;51.036;6.972;2023-07-13T12:52:20;100888.34;;;26.09;44.54
11710;BME280;5911;51.036;6.972;2023-07-13T12:54:55;100903.78;;;26.02;44.52
11710;BME280;5911;51.036;6.972;2023-07-13T12:57:38;100917.06;;;26.10;44.34
11710;BME280;5911;51.036;6.972;2023-07-13T13:00:24;100907.38;;;26.20;44.35
11710;BME280;5911;51.036;6.972;2023-07-13T13:02:53;100914.88;;;25.93;44.46
11710;BME280;5911;51.036;6.972;2023-07-13T13:05:41;100907.78;;;25.54;45.76
11710;BME280;5911;51.036;6.972;2023-07-13T13:08:10;100909.88;;;25.52;45.19
11710;BME280;5911;51.036;6.972;2023-07-13T13:10:38;100898.66;;;26.43;44.69
11710;BME280;5911;51.036;6.972;2023-07-13T13:13:06;100925.59;;;26.38;43.42
11710;BME280;5911;51.036;6.972;2023-07-13T13:15:36;100909.78;;;25.79;42.90
11710;BME280;5911;51.036;6.972;2023-07-13T13:18:14;100911.38;;;25.48;43.17
11710;BME280;5911;51.036;6.972;2023-07-13T13:20:42;100901.75;;;26.22;43.41